sensor_id;sensor_type;location;lat;lon;timestamp;temperature;humidity
24678;DHT22;12800;53.094;8.778;2024-01-16T00:00:56;3.10;90.20
24678;DHT22;12800;53.094;8.778;2024-01-16T00:03:22;3.10;90.20
24678;DHT22;12800;53.094;8.778;2024-01-16T00:05:48;3.10;90.20
24678;DHT22;12800;53.094;8.778;2024-01-16T00:08:14;3.10;90.20
24678;DHT22;12800;53.094;8.778;2024-01-16T00:10:40;3.10;90.20
24678;DHT22;12800;53.094;8.778;2024-01-16T00:13:06;3.10;90.20
24678;DHT22;12800;53.094;8.778;2024-01-16T00:15:31;3.00;90.20
24678;DHT22;12800;53.094;8.778;2024-01-16T00:17:57;3.00;90.30
24678;DHT22;12800;53.094;8.778;2024-01-16T00:20:23;3.00;90.30
24678;DHT22;12800;53.094;8.778;2024-01-16T00:22:50;3.00;90.30
24678;DHT22;12800;53.094;8.778;2024-01-16T00:25:17;3.00;90.40
24678;DHT22;12800;53.094;8.778;2024-01-16T00:27:45;3.00;90.40
24678;DHT22;12800;53.094;8.778;2024-01-16T00:30:11;3.00;90.40
24678;DHT22;12800;53.094;8.778;2024-01-16T00:32:39;3.00;90.40
24678;DHT22;12800;53.094;8.778;2024-01-16T00:35:05;3.00;90.50
24678;DHT22;12800;53.094;8.778;2024-01-16T00:37:30;3.00;90.50
24678;DHT22;12800;53.094;8.778;2024-01-16T00:39:56;3.00;90.40
24678;DHT22;12800;53.094;8.778;2024-01-16T00:42:22;3.00;90.40
24678;DHT22;12800;53.094;8.778;2024-01-16T00:44:47;3.00;90.40
24678;DHT22;12800;53.094;8.778;2024-01-16T00:47:13;3.00;90.50
24678;DHT22;12800;53.094;8.778;2024-01-16T00:49:39;3.00;90.50
24678;DHT22;12800;53.094;8.778;2024-01-16T00:52:05;3.00;90.50
24678;DHT22;12800;53.094;8.778;2024-01-16T00:54:30;3.00;90.50
24678;DHT22;12800;53.094;8.778;2024-01-16T00:56:56;3.00;90.50
24678;DHT22;12800;53.094;8.778;2024-01-16T00:59:25;3.00;90.50
24678;DHT22;12800;53.094;8.778;2024-01-16T01:01:51;3.00;90.50
24678;DHT22;12800;53.094;8.778;2024-01-16T01:04:17;3.00;90.50
24678;DHT22;12800;53.094;8.778;2024-01-16T01:06:42;2.90;90.50
24678;DHT22;12800;53.094;8.778;2024-01-16T01:09:08;2.90;90.50
24678;DHT22;12800;53.094;8.778;2024-01-16T01:11:38;2.90;90.60
24678;DHT22;12800;53.094;8.778;2024-01-16T01:14:04;3.00;90.60
24678;DHT22;12800;53.094;8.778;2024-01-16T01:16:29;3.00;90.70
24678;DHT22;12800;53.094;8.778;2024-01-16T01:18:55;3.00;90.70
24678;DHT22;12800;53.094;8.778;2024-01-16T01:21:21;3.00;91.00
24678;DHT22;12800;53.094;8.778;2024-01-16T01:23:46;3.00;90.50
24678;DHT22;12800;53.094;8.778;2024-01-16T01:26:12;3.00;90.50
24678;DHT22;12800;53.094;8.778;2024-01-16T01:28:43;3.00;90.40
24678;DHT22;12800;53.094;8.778;2024-01-16T01:31:11;3.00;90.40
24678;DHT22;12800;53.094;8.778;2024-01-16T01:33:37;3.00;90.40
24678;DHT22;12800;53.094;8.778;2024-01-16T01:36:03;3.00;90.30
24678;DHT22;12800;53.094;8.778;2024-01-16T01:38:29;2.90;90.20
24678;DHT22;12800;53.094;8.778;2024-01-16T01:40:55;2.90;90.20
24678;DHT22;12800;53.094;8.778;2024-01-16T01:43:22;2.90;90.20
24678;DHT22;12800;53.094;8.778;2024-01-16T01:48:32;2.90;90.10
24678;DHT22;12800;53.094;8.778;2024-01-16T01:50:59;2.90;90.10
24678;DHT22;12800;53.094;8.778;2024-01-16T01:53:25;2.90;90.00
24678;DHT22;12800;53.094;8.778;2024-01-16T01:55:51;2.90;90.10
24678;DHT22;12800;53.094;8.778;2024-01-16T01:58:17;2.90;90.00
24678;DHT22;12800;53.094;8.778;2024-01-16T02:00:43;2.90;90.00
24678;DHT22;12800;53.094;8.778;2024-01-16T02:03:09;2.80;89.90
24678;DHT22;12800;53.094;8.778;2024-01-16T02:05:34;2.90;89.80
24678;DHT22;12800;53.094;8.778;2024-01-16T02:08:01;2.80;89.60
24678;DHT22;12800;53.094;8.778;2024-01-16T02:10:27;2.80;90.00
24678;DHT22;12800;53.094;8.778;2024-01-16T02:12:53;2.80;90.00
24678;DHT22;12800;53.094;8.778;2024-01-16T02:15:18;2.70;90.00
24678;DHT22;12800;53.094;8.778;2024-01-16T02:17:44;2.60;90.00
24678;DHT22;12800;53.094;8.778;2024-01-16T02:20:10;2.60;90.10
24678;DHT22;12800;53.094;8.778;2024-01-16T02:22:36;2.60;90.10
24678;DHT22;12800;53.094;8.778;2024-01-16T02:25:02;2.50;90.10
24678;DHT22;12800;53.094;8.778;2024-01-16T02:27:28;2.50;90.10
24678;DHT22;12800;53.094;8.778;2024-01-16T02:29:53;2.50;90.10
24678;DHT22;12800;53.094;8.778;2024-01-16T02:32:19;2.40;90.10
24678;DHT22;12800;53.094;8.778;2024-01-16T02:34:45;2.40;90.20
24678;DHT22;12800;53.094;8.778;2024-01-16T02:37:11;2.40;90.20
24678;DHT22;12800;53.094;8.778;2024-01-16T02:39:36;2.40;90.20
24678;DHT22;12800;53.094;8.778;2024-01-16T02:42:02;2.40;90.20
24678;DHT22;12800;53.094;8.778;2024-01-16T02:44:28;2.40;90.20
24678;DHT22;12800;53.094;8.778;2024-01-16T02:46:53;2.40;90.10
24678;DHT22;12800;53.094;8.778;2024-01-16T02:49:19;2.30;90.20
24678;DHT22;12800;53.094;8.778;2024-01-16T02:51:45;2.30;90.30
24678;DHT22;12800;53.094;8.778;2024-01-16T02:54:11;2.30;90.40
24678;DHT22;12800;53.094;8.778;2024-01-16T02:56:37;2.20;90.40
24678;DHT22;12800;53.094;8.778;2024-01-16T02:59:02;2.30;90.50
24678;DHT22;12800;53.094;8.778;2024-01-16T03:01:28;2.20;90.50
24678;DHT22;12800;53.094;8.778;2024-01-16T03:03:54;2.20;90.60
24678;DHT22;12800;53.094;8.778;2024-01-16T03:06:23;2.30;90.70
24678;DHT22;12800;53.094;8.778;2024-01-16T03:08:50;2.30;90.70
24678;DHT22;12800;53.094;8.778;2024-01-16T03:11:16;2.30;90.70
24678;DHT22;12800;53.094;8.778;2024-01-16T03:13:42;2.30;90.50
24678;DHT22;12800;53.094;8.778;2024-01-16T03:16:11;2.30;90.50
24678;DHT22;12800;53.094;8.778;2024-01-16T03:18:38;2.30;90.40
24678;DHT22;12800;53.094;8.778;2024-01-16T03:21:06;2.30;90.40
24678;DHT22;12800;53.094;8.778;2024-01-16T03:23:33;2.30;90.70
24678;DHT22;12800;53.094;8.778;2024-01-16T03:25:59;2.30;90.30
24678;DHT22;12800;53.094;8.778;2024-01-16T03:28:24;2.30;90.30
24678;DHT22;12800;53.094;8.778;2024-01-16T03:30:50;2.30;90.20
24678;DHT22;12800;53.094;8.778;2024-01-16T03:33:16;2.30;90.20
24678;DHT22;12800;53.094;8.778;2024-01-16T03:35:41;2.30;90.20
24678;DHT22;12800;53.094;8.778;2024-01-16T03:38:07;2.30;90.10
24678;DHT22;12800;53.094;8.778;2024-01-16T03:40:33;2.30;90.00
24678;DHT22;12800;53.094;8.778;2024-01-16T03:43:03;2.20;89.80
24678;DHT22;12800;53.094;8.778;2024-01-16T03:45:30;2.20;89.70
24678;DHT22;12800;53.094;8.778;2024-01-16T03:47:57;2.10;89.60
24678;DHT22;12800;53.094;8.778;2024-01-16T03:50:22;2.10;89.70
24678;DHT22;12800;53.094;8.778;2024-01-16T03:52:48;2.10;89.90
24678;DHT22;12800;53.094;8.778;2024-01-16T03:55:13;2.10;89.70
24678;DHT22;12800;53.094;8.778;2024-01-16T03:57:39;2.10;89.50
24678;DHT22;12800;53.094;8.778;2024-01-16T04:00:05;2.10;89.50
24678;DHT22;12800;53.094;8.778;2024-01-16T04:02:31;2.10;89.50
24678;DHT22;12800;53.094;8.778;2024-01-16T04:04:57;2.10;89.30
24678;DHT22;12800;53.094;8.778;2024-01-16T04:07:23;2.10;89.30
24678;DHT22;12800;53.094;8.778;2024-01-16T04:09:52;2.10;89.20
24678;DHT22;12800;53.094;8.778;2024-01-16T04:12:17;2.10;89.00
24678;DHT22;12800;53.094;8.778;2024-01-16T04:14:43;2.00;89.00
24678;DHT22;12800;53.094;8.778;2024-01-16T04:17:08;2.00;89.00
24678;DHT22;12800;53.094;8.778;2024-01-16T04:19:34;2.00;89.00
24678;DHT22;12800;53.094;8.778;2024-01-16T04:22:00;2.00;88.80
24678;DHT22;12800;53.094;8.778;2024-01-16T04:24:30;2.00;88.80
24678;DHT22;12800;53.094;8.778;2024-01-16T04:26:56;1.90;88.70
24678;DHT22;12800;53.094;8.778;2024-01-16T04:29:22;1.90;88.80
24678;DHT22;12800;53.094;8.778;2024-01-16T04:31:47;1.90;88.80
24678;DHT22;12800;53.094;8.778;2024-01-16T04:34:13;1.90;88.80
24678;DHT22;12800;53.094;8.778;2024-01-16T04:36:39;1.90;88.80
24678;DHT22;12800;53.094;8.778;2024-01-16T04:39:04;1.90;88.70
24678;DHT22;12800;53.094;8.778;2024-01-16T04:41:30;1.90;88.70
24678;DHT22;12800;53.094;8.778;2024-01-16T04:43:55;1.90;88.80
24678;DHT22;12800;53.094;8.778;2024-01-16T04:46:21;1.90;88.60
24678;DHT22;12800;53.094;8.778;2024-01-16T04:48:47;1.90;88.60
24678;DHT22;12800;53.094;8.778;2024-01-16T04:51:12;1.90;88.60
24678;DHT22;12800;53.094;8.778;2024-01-16T04:53:38;1.90;88.50
24678;DHT22;12800;53.094;8.778;2024-01-16T04:56:04;1.80;88.50
24678;DHT22;12800;53.094;8.778;2024-01-16T04:58:30;1.80;88.60
24678;DHT22;12800;53.094;8.778;2024-01-16T05:00:55;1.80;88.60
24678;DHT22;12800;53.094;8.778;2024-01-16T05:03:21;1.80;88.60
24678;DHT22;12800;53.094;8.778;2024-01-16T05:05:47;1.80;88.70
24678;DHT22;12800;53.094;8.778;2024-01-16T05:08:12;1.80;88.70
24678;DHT22;12800;53.094;8.778;2024-01-16T05:10:38;1.80;88.60
24678;DHT22;12800;53.094;8.778;2024-01-16T05:13:03;1.80;88.60
24678;DHT22;12800;53.094;8.778;2024-01-16T05:15:29;1.80;88.70
24678;DHT22;12800;53.094;8.778;2024-01-16T05:17:55;1.80;88.70
24678;DHT22;12800;53.094;8.778;2024-01-16T05:20:20;1.80;88.70
24678;DHT22;12800;53.094;8.778;2024-01-16T05:22:47;1.90;88.80
24678;DHT22;12800;53.094;8.778;2024-01-16T05:25:12;1.90;88.80
24678;DHT22;12800;53.094;8.778;2024-01-16T05:27:38;1.90;88.90
24678;DHT22;12800;53.094;8.778;2024-01-16T05:30:04;1.90;88.90
24678;DHT22;12800;53.094;8.778;2024-01-16T05:32:30;1.90;88.90
24678;DHT22;12800;53.094;8.778;2024-01-16T05:34:55;2.00;88.80
24678;DHT22;12800;53.094;8.778;2024-01-16T05:37:21;2.00;88.70
24678;DHT22;12800;53.094;8.778;2024-01-16T05:39:46;2.00;88.60
24678;DHT22;12800;53.094;8.778;2024-01-16T05:42:12;1.90;88.50
24678;DHT22;12800;53.094;8.778;2024-01-16T05:44:38;2.00;88.70
24678;DHT22;12800;53.094;8.778;2024-01-16T05:47:04;2.00;88.70
24678;DHT22;12800;53.094;8.778;2024-01-16T05:49:31;2.00;88.60
24678;DHT22;12800;53.094;8.778;2024-01-16T05:51:57;2.00;88.60
24678;DHT22;12800;53.094;8.778;2024-01-16T05:54:22;2.00;88.60
24678;DHT22;12800;53.094;8.778;2024-01-16T05:56:48;2.00;88.70
24678;DHT22;12800;53.094;8.778;2024-01-16T05:59:15;2.00;88.80
24678;DHT22;12800;53.094;8.778;2024-01-16T06:01:41;2.00;88.80
24678;DHT22;12800;53.094;8.778;2024-01-16T06:04:06;2.00;88.70
24678;DHT22;12800;53.094;8.778;2024-01-16T06:06:32;2.00;88.80
24678;DHT22;12800;53.094;8.778;2024-01-16T06:08:58;2.10;89.70
24678;DHT22;12800;53.094;8.778;2024-01-16T06:11:31;2.10;89.00
24678;DHT22;12800;53.094;8.778;2024-01-16T06:13:57;2.10;89.00
24678;DHT22;12800;53.094;8.778;2024-01-16T06:16:22;2.20;89.20
24678;DHT22;12800;53.094;8.778;2024-01-16T06:18:48;2.20;89.00
24678;DHT22;12800;53.094;8.778;2024-01-16T06:21:13;2.20;88.90
24678;DHT22;12800;53.094;8.778;2024-01-16T06:23:40;2.20;88.90
24678;DHT22;12800;53.094;8.778;2024-01-16T06:26:08;2.20;89.00
24678;DHT22;12800;53.094;8.778;2024-01-16T06:28:33;2.20;89.00
24678;DHT22;12800;53.094;8.778;2024-01-16T06:30:59;2.20;89.10
24678;DHT22;12800;53.094;8.778;2024-01-16T06:33:24;2.20;89.20
24678;DHT22;12800;53.094;8.778;2024-01-16T06:35:51;2.20;89.10
24678;DHT22;12800;53.094;8.778;2024-01-16T06:38:17;2.20;89.00
24678;DHT22;12800;53.094;8.778;2024-01-16T06:40:42;2.20;89.10
24678;DHT22;12800;53.094;8.778;2024-01-16T06:43:08;2.20;89.30
24678;DHT22;12800;53.094;8.778;2024-01-16T06:45:34;2.30;89.50
24678;DHT22;12800;53.094;8.778;2024-01-16T06:47:59;2.30;89.50
24678;DHT22;12800;53.094;8.778;2024-01-16T06:50:25;2.30;89.60
24678;DHT22;12800;53.094;8.778;2024-01-16T06:52:51;2.30;89.50
24678;DHT22;12800;53.094;8.778;2024-01-16T06:55:16;2.30;89.30
24678;DHT22;12800;53.094;8.778;2024-01-16T06:57:42;2.30;89.30
24678;DHT22;12800;53.094;8.778;2024-01-16T07:00:08;2.30;89.40
24678;DHT22;12800;53.094;8.778;2024-01-16T07:02:33;2.20;89.30
24678;DHT22;12800;53.094;8.778;2024-01-16T07:04:59;2.20;89.20
24678;DHT22;12800;53.094;8.778;2024-01-16T07:07:25;2.20;89.10
24678;DHT22;12800;53.094;8.778;2024-01-16T07:09:51;2.20;89.10
24678;DHT22;12800;53.094;8.778;2024-01-16T07:12:16;2.20;89.10
24678;DHT22;12800;53.094;8.778;2024-01-16T07:14:42;2.20;89.00
24678;DHT22;12800;53.094;8.778;2024-01-16T07:17:07;2.20;89.00
24678;DHT22;12800;53.094;8.778;2024-01-16T07:19:33;2.20;88.90
24678;DHT22;12800;53.094;8.778;2024-01-16T07:21:59;2.20;88.90
24678;DHT22;12800;53.094;8.778;2024-01-16T07:24:24;2.20;88.90
24678;DHT22;12800;53.094;8.778;2024-01-16T07:26:50;2.20;88.80
24678;DHT22;12800;53.094;8.778;2024-01-16T07:29:15;2.20;88.70
24678;DHT22;12800;53.094;8.778;2024-01-16T07:31:41;2.20;88.70
24678;DHT22;12800;53.094;8.778;2024-01-16T07:34:07;2.20;88.90
24678;DHT22;12800;53.094;8.778;2024-01-16T07:36:32;2.30;89.70
24678;DHT22;12800;53.094;8.778;2024-01-16T07:38:58;2.30;89.00
24678;DHT22;12800;53.094;8.778;2024-01-16T07:41:24;2.30;89.00
24678;DHT22;12800;53.094;8.778;2024-01-16T07:43:49;2.30;89.00
24678;DHT22;12800;53.094;8.778;2024-01-16T07:46:15;2.40;89.10
24678;DHT22;12800;53.094;8.778;2024-01-16T07:48:41;2.40;89.00
24678;DHT22;12800;53.094;8.778;2024-01-16T07:51:07;2.40;89.00
24678;DHT22;12800;53.094;8.778;2024-01-16T07:53:33;2.40;89.00
24678;DHT22;12800;53.094;8.778;2024-01-16T07:55:58;2.50;89.00
24678;DHT22;12800;53.094;8.778;2024-01-16T07:58:24;2.50;88.90
24678;DHT22;12800;53.094;8.778;2024-01-16T08:00:49;2.40;88.60
24678;DHT22;12800;53.094;8.778;2024-01-16T08:03:15;2.40;88.40
24678;DHT22;12800;53.094;8.778;2024-01-16T08:05:41;2.40;88.40
24678;DHT22;12800;53.094;8.778;2024-01-16T08:08:09;2.40;88.40
24678;DHT22;12800;53.094;8.778;2024-01-16T08:10:36;2.40;88.50
24678;DHT22;12800;53.094;8.778;2024-01-16T08:13:01;2.40;88.40
24678;DHT22;12800;53.094;8.778;2024-01-16T08:15:27;2.40;88.30
24678;DHT22;12800;53.094;8.778;2024-01-16T08:17:53;2.40;88.30
24678;DHT22;12800;53.094;8.778;2024-01-16T08:20:18;2.40;88.50
24678;DHT22;12800;53.094;8.778;2024-01-16T08:22:44;2.40;88.40
24678;DHT22;12800;53.094;8.778;2024-01-16T08:25:10;2.40;88.30
24678;DHT22;12800;53.094;8.778;2024-01-16T08:27:35;2.40;88.40
24678;DHT22;12800;53.094;8.778;2024-01-16T08:30:04;2.40;88.40
24678;DHT22;12800;53.094;8.778;2024-01-16T08:32:30;2.50;88.40
24678;DHT22;12800;53.094;8.778;2024-01-16T08:34:56;2.50;88.50
24678;DHT22;12800;53.094;8.778;2024-01-16T08:37:22;2.50;88.40
24678;DHT22;12800;53.094;8.778;2024-01-16T08:39:47;2.50;88.60
24678;DHT22;12800;53.094;8.778;2024-01-16T08:42:13;2.60;88.80
24678;DHT22;12800;53.094;8.778;2024-01-16T08:44:39;2.60;88.80
24678;DHT22;12800;53.094;8.778;2024-01-16T08:47:05;2.70;88.60
24678;DHT22;12800;53.094;8.778;2024-01-16T08:49:32;2.70;88.60
24678;DHT22;12800;53.094;8.778;2024-01-16T08:51:58;2.80;88.60
24678;DHT22;12800;53.094;8.778;2024-01-16T08:54:24;2.80;88.70
24678;DHT22;12800;53.094;8.778;2024-01-16T08:56:51;2.90;88.80
24678;DHT22;12800;53.094;8.778;2024-01-16T08:59:17;2.90;88.70
24678;DHT22;12800;53.094;8.778;2024-01-16T09:01:43;2.90;88.70
24678;DHT22;12800;53.094;8.778;2024-01-16T09:04:08;3.00;89.30
24678;DHT22;12800;53.094;8.778;2024-01-16T09:06:34;3.00;88.40
24678;DHT22;12800;53.094;8.778;2024-01-16T09:08:59;3.00;88.30
24678;DHT22;12800;53.094;8.778;2024-01-16T09:11:25;3.00;88.20
24678;DHT22;12800;53.094;8.778;2024-01-16T09:13:51;3.00;88.10
24678;DHT22;12800;53.094;8.778;2024-01-16T09:16:17;3.00;87.90
24678;DHT22;12800;53.094;8.778;2024-01-16T09:18:43;3.00;87.80
24678;DHT22;12800;53.094;8.778;2024-01-16T09:21:08;3.00;87.90
24678;DHT22;12800;53.094;8.778;2024-01-16T09:23:34;3.00;87.80
24678;DHT22;12800;53.094;8.778;2024-01-16T09:25:59;3.00;87.70
24678;DHT22;12800;53.094;8.778;2024-01-16T09:28:25;2.90;87.80
24678;DHT22;12800;53.094;8.778;2024-01-16T09:30:54;3.00;87.90
24678;DHT22;12800;53.094;8.778;2024-01-16T09:33:22;3.00;87.90
24678;DHT22;12800;53.094;8.778;2024-01-16T09:35:47;3.00;87.80
24678;DHT22;12800;53.094;8.778;2024-01-16T09:38:13;3.00;87.90
24678;DHT22;12800;53.094;8.778;2024-01-16T09:40:39;3.00;87.90
24678;DHT22;12800;53.094;8.778;2024-01-16T09:43:06;3.00;87.80
24678;DHT22;12800;53.094;8.778;2024-01-16T09:45:37;3.00;87.80
24678;DHT22;12800;53.094;8.778;2024-01-16T09:48:04;3.00;87.70
24678;DHT22;12800;53.094;8.778;2024-01-16T09:50:30;3.00;87.90
24678;DHT22;12800;53.094;8.778;2024-01-16T09:52:56;3.00;87.80
24678;DHT22;12800;53.094;8.778;2024-01-16T09:55:22;3.00;87.80
24678;DHT22;12800;53.094;8.778;2024-01-16T09:57:53;3.10;87.80
24678;DHT22;12800;53.094;8.778;2024-01-16T10:00:19;3.10;87.70
24678;DHT22;12800;53.094;8.778;2024-01-16T10:02:45;3.10;87.70
24678;DHT22;12800;53.094;8.778;2024-01-16T10:05:12;3.10;87.70
24678;DHT22;12800;53.094;8.778;2024-01-16T10:07:41;3.20;87.50
24678;DHT22;12800;53.094;8.778;2024-01-16T10:10:09;3.20;87.50
24678;DHT22;12800;53.094;8.778;2024-01-16T10:12:38;3.20;87.40
24678;DHT22;12800;53.094;8.778;2024-01-16T10:15:06;3.30;87.40
24678;DHT22;12800;53.094;8.778;2024-01-16T10:17:40;3.30;87.30
24678;DHT22;12800;53.094;8.778;2024-01-16T10:20:08;3.30;87.30
24678;DHT22;12800;53.094;8.778;2024-01-16T10:22:41;3.40;87.30
24678;DHT22;12800;53.094;8.778;2024-01-16T10:25:17;3.40;87.30
24678;DHT22;12800;53.094;8.778;2024-01-16T10:27:45;3.50;87.20
24678;DHT22;12800;53.094;8.778;2024-01-16T10:30:12;3.50;87.10
24678;DHT22;12800;53.094;8.778;2024-01-16T10:32:39;3.50;87.10
24678;DHT22;12800;53.094;8.778;2024-01-16T10:35:10;3.50;87.20
24678;DHT22;12800;53.094;8.778;2024-01-16T10:40:09;3.60;86.90
24678;DHT22;12800;53.094;8.778;2024-01-16T10:42:34;3.60;86.90
24678;DHT22;12800;53.094;8.778;2024-01-16T10:45:00;3.60;86.80
24678;DHT22;12800;53.094;8.778;2024-01-16T10:47:26;3.70;87.00
24678;DHT22;12800;53.094;8.778;2024-01-16T10:49:51;3.70;87.00
24678;DHT22;12800;53.094;8.778;2024-01-16T10:52:18;3.80;87.00
24678;DHT22;12800;53.094;8.778;2024-01-16T10:54:43;3.80;86.70
24678;DHT22;12800;53.094;8.778;2024-01-16T10:57:14;3.70;86.40
24678;DHT22;12800;53.094;8.778;2024-01-16T10:59:48;3.70;86.40
24678;DHT22;12800;53.094;8.778;2024-01-16T11:02:19;3.80;86.70
24678;DHT22;12800;53.094;8.778;2024-01-16T11:04:46;3.80;86.80
24678;DHT22;12800;53.094;8.778;2024-01-16T11:07:13;3.90;86.90
24678;DHT22;12800;53.094;8.778;2024-01-16T11:09:40;3.90;86.60
24678;DHT22;12800;53.094;8.778;2024-01-16T11:12:08;3.90;86.60
24678;DHT22;12800;53.094;8.778;2024-01-16T11:14:35;3.90;86.70
24678;DHT22;12800;53.094;8.778;2024-01-16T11:17:03;4.00;86.50
24678;DHT22;12800;53.094;8.778;2024-01-16T11:19:29;4.00;86.40
24678;DHT22;12800;53.094;8.778;2024-01-16T11:21:57;4.00;86.40
24678;DHT22;12800;53.094;8.778;2024-01-16T11:24:24;4.10;86.30
24678;DHT22;12800;53.094;8.778;2024-01-16T11:26:49;4.00;86.00
24678;DHT22;12800;53.094;8.778;2024-01-16T11:31:53;4.00;86.00
24678;DHT22;12800;53.094;8.778;2024-01-16T11:37:13;3.90;86.10
24678;DHT22;12800;53.094;8.778;2024-01-16T11:39:39;3.80;85.80
24678;DHT22;12800;53.094;8.778;2024-01-16T11:42:08;3.80;86.10
24678;DHT22;12800;53.094;8.778;2024-01-16T11:47:18;3.70;86.10
24678;DHT22;12800;53.094;8.778;2024-01-16T11:49:46;3.60;86.00
24678;DHT22;12800;53.094;8.778;2024-01-16T11:52:11;3.60;86.20
24678;DHT22;12800;53.094;8.778;2024-01-16T11:54:39;3.60;86.20
24678;DHT22;12800;53.094;8.778;2024-01-16T11:57:49;3.60;86.30
24678;DHT22;12800;53.094;8.778;2024-01-16T12:00:19;3.60;86.30
24678;DHT22;12800;53.094;8.778;2024-01-16T12:05:11;3.70;86.30
24678;DHT22;12800;53.094;8.778;2024-01-16T12:07:50;3.70;86.40
24678;DHT22;12800;53.094;8.778;2024-01-16T12:10:21;3.70;86.30
24678;DHT22;12800;53.094;8.778;2024-01-16T12:12:48;3.60;86.20
24678;DHT22;12800;53.094;8.778;2024-01-16T12:15:18;3.60;86.30
24678;DHT22;12800;53.094;8.778;2024-01-16T12:18:00;3.70;86.30
24678;DHT22;12800;53.094;8.778;2024-01-16T12:20:28;3.60;86.20
24678;DHT22;12800;53.094;8.778;2024-01-16T12:25:20;3.60;86.30
24678;DHT22;12800;53.094;8.778;2024-01-16T12:27:57;3.60;86.50
24678;DHT22;12800;53.094;8.778;2024-01-16T12:30:27;3.60;86.50
24678;DHT22;12800;53.094;8.778;2024-01-16T12:33:09;3.70;86.20
24678;DHT22;12800;53.094;8.778;2024-01-16T12:35:38;3.60;86.50
24678;DHT22;12800;53.094;8.778;2024-01-16T12:38:05;3.60;86.40
24678;DHT22;12800;53.094;8.778;2024-01-16T12:40:35;3.70;86.40
24678;DHT22;12800;53.094;8.778;2024-01-16T12:43:02;3.60;86.30
24678;DHT22;12800;53.094;8.778;2024-01-16T12:45:28;3.70;86.60
24678;DHT22;12800;53.094;8.778;2024-01-16T12:47:55;3.70;86.70
24678;DHT22;12800;53.094;8.778;2024-01-16T12:50:25;3.70;86.70
24678;DHT22;12800;53.094;8.778;2024-01-16T12:55:31;3.80;86.70
24678;DHT22;12800;53.094;8.778;2024-01-16T12:58:21;3.80;86.70
24678;DHT22;12800;53.094;8.778;2024-01-16T13:00:50;3.90;86.90
24678;DHT22;12800;53.094;8.778;2024-01-16T13:03:21;3.90;86.80
24678;DHT22;12800;53.094;8.778;2024-01-16T13:05:58;3.90;86.80
24678;DHT22;12800;53.094;8.778;2024-01-16T13:08:24;3.90;86.80
24678;DHT22;12800;53.094;8.778;2024-01-16T13:11:03;3.90;86.80
24678;DHT22;12800;53.094;8.778;2024-01-16T13:13:29;3.90;86.80
24678;DHT22;12800;53.094;8.778;2024-01-16T13:15:55;3.90;86.70
24678;DHT22;12800;53.094;8.778;2024-01-16T13:18:26;3.90;86.80
24678;DHT22;12800;53.094;8.778;2024-01-16T13:20:54;3.90;86.90
24678;DHT22;12800;53.094;8.778;2024-01-16T13:23:20;3.90;86.80
24678;DHT22;12800;53.094;8.778;2024-01-16T13:25:47;3.90;86.80
24678;DHT22;12800;53.094;8.778;2024-01-16T13:28:15;3.90;86.80
24678;DHT22;12800;53.094;8.778;2024-01-16T13:30:41;3.90;86.80
24678;DHT22;12800;53.094;8.778;2024-01-16T13:33:08;3.90;86.70
24678;DHT22;12800;53.094;8.778;2024-01-16T13:35:44;3.90;86.60
24678;DHT22;12800;53.094;8.778;2024-01-16T13:38:11;3.90;86.60
24678;DHT22;12800;53.094;8.778;2024-01-16T13:40:37;3.90;86.70
24678;DHT22;12800;53.094;8.778;2024-01-16T13:43:03;3.90;86.70
24678;DHT22;12800;53.094;8.778;2024-01-16T13:45:29;3.90;86.80
24678;DHT22;12800;53.094;8.778;2024-01-16T13:47:55;3.90;86.80
24678;DHT22;12800;53.094;8.778;2024-01-16T13:50:21;3.90;86.90
24678;DHT22;12800;53.094;8.778;2024-01-16T13:52:47;3.90;86.90
24678;DHT22;12800;53.094;8.778;2024-01-16T13:55:13;3.90;86.90
24678;DHT22;12800;53.094;8.778;2024-01-16T13:57:39;3.90;86.90
24678;DHT22;12800;53.094;8.778;2024-01-16T14:00:07;3.90;87.00
24678;DHT22;12800;53.094;8.778;2024-01-16T14:02:33;3.90;87.00
24678;DHT22;12800;53.094;8.778;2024-01-16T14:05:04;3.90;87.00
24678;DHT22;12800;53.094;8.778;2024-01-16T14:07:31;3.90;87.00
24678;DHT22;12800;53.094;8.778;2024-01-16T14:09:57;4.00;87.10
24678;DHT22;12800;53.094;8.778;2024-01-16T14:12:23;4.00;87.20
24678;DHT22;12800;53.094;8.778;2024-01-16T14:14:50;4.00;87.10
24678;DHT22;12800;53.094;8.778;2024-01-16T14:17:16;4.00;87.10
24678;DHT22;12800;53.094;8.778;2024-01-16T14:19:42;4.00;87.00
24678;DHT22;12800;53.094;8.778;2024-01-16T14:22:08;4.00;87.00
24678;DHT22;12800;53.094;8.778;2024-01-16T14:24:35;4.00;87.00
24678;DHT22;12800;53.094;8.778;2024-01-16T14:27:03;4.00;87.00
24678;DHT22;12800;53.094;8.778;2024-01-16T14:29:29;3.90;87.00
24678;DHT22;12800;53.094;8.778;2024-01-16T14:31:55;3.90;86.90
24678;DHT22;12800;53.094;8.778;2024-01-16T14:34:21;3.90;86.90
24678;DHT22;12800;53.094;8.778;2024-01-16T14:36:49;3.90;87.00
24678;DHT22;12800;53.094;8.778;2024-01-16T14:39:15;3.90;87.10
24678;DHT22;12800;53.094;8.778;2024-01-16T14:41:47;3.90;87.10
24678;DHT22;12800;53.094;8.778;2024-01-16T14:44:12;3.90;87.20
24678;DHT22;12800;53.094;8.778;2024-01-16T14:46:40;3.90;87.10
24678;DHT22;12800;53.094;8.778;2024-01-16T14:49:06;3.90;87.00
24678;DHT22;12800;53.094;8.778;2024-01-16T14:51:31;3.90;87.10
24678;DHT22;12800;53.094;8.778;2024-01-16T14:53:57;3.80;87.00
24678;DHT22;12800;53.094;8.778;2024-01-16T14:56:24;3.80;87.10
24678;DHT22;12800;53.094;8.778;2024-01-16T14:58:50;3.80;87.10
24678;DHT22;12800;53.094;8.778;2024-01-16T15:01:17;3.80;87.30
24678;DHT22;12800;53.094;8.778;2024-01-16T15:03:43;3.80;87.40
24678;DHT22;12800;53.094;8.778;2024-01-16T15:06:08;3.80;87.40
24678;DHT22;12800;53.094;8.778;2024-01-16T15:08:38;3.70;87.30
24678;DHT22;12800;53.094;8.778;2024-01-16T15:11:03;3.70;87.30
24678;DHT22;12800;53.094;8.778;2024-01-16T15:13:31;3.70;87.50
24678;DHT22;12800;53.094;8.778;2024-01-16T15:15:56;3.70;87.50
24678;DHT22;12800;53.094;8.778;2024-01-16T15:18:22;3.60;87.40
24678;DHT22;12800;53.094;8.778;2024-01-16T15:20:48;3.60;87.50
24678;DHT22;12800;53.094;8.778;2024-01-16T15:23:14;3.60;87.40
24678;DHT22;12800;53.094;8.778;2024-01-16T15:25:39;3.60;87.60
24678;DHT22;12800;53.094;8.778;2024-01-16T15:28:05;3.50;87.50
24678;DHT22;12800;53.094;8.778;2024-01-16T15:30:31;3.50;87.50
24678;DHT22;12800;53.094;8.778;2024-01-16T15:32:59;3.50;87.50
24678;DHT22;12800;53.094;8.778;2024-01-16T15:35:24;3.50;88.40
24678;DHT22;12800;53.094;8.778;2024-01-16T15:37:50;3.40;87.60
24678;DHT22;12800;53.094;8.778;2024-01-16T15:40:15;3.40;87.60
24678;DHT22;12800;53.094;8.778;2024-01-16T15:42:41;3.40;87.60
24678;DHT22;12800;53.094;8.778;2024-01-16T15:45:08;3.40;87.60
24678;DHT22;12800;53.094;8.778;2024-01-16T15:47:37;3.30;87.70
24678;DHT22;12800;53.094;8.778;2024-01-16T15:50:04;3.30;87.70
24678;DHT22;12800;53.094;8.778;2024-01-16T15:52:31;3.30;87.80
24678;DHT22;12800;53.094;8.778;2024-01-16T15:54:56;3.30;87.80
24678;DHT22;12800;53.094;8.778;2024-01-16T15:57:22;3.30;87.90
24678;DHT22;12800;53.094;8.778;2024-01-16T15:59:48;3.30;87.80
24678;DHT22;12800;53.094;8.778;2024-01-16T16:02:14;3.30;87.90